Time;durP1;ratioP1;P1;durP2;ratioP2;P2;SDS_P1;SDS_P2;PMS_P1;PMS_P2;Temp;Humidity;BMP_temperature;BMP_pressure;BME280_temperature;BME280_humidity;BME280_pressure;Samples;Min_cycle;Max_cycle;Signal;HPM_P1;HPM_P2
2021/05/12 00:01:37;;;;;;;;;;;21.90;54.60;;;;;;4712018;30;19937;-91
2021/05/12 00:04:04;;;;;;;;;;;21.90;54.60;;;;;;4711928;30;19938;-90
2021/05/12 00:06:31;;;;;;;;;;;21.90;54.60;;;;;;4705314;30;19937;-90
2021/05/12 00:08:58;;;;;;;;;;;21.90;54.60;;;;;;4709602;30;19930;-90
2021/05/12 00:11:25;;;;;;;;;;;21.90;54.60;;;;;;4710195;30;19935;-90
2021/05/12 00:13:51;;;;;;;;;;;21.90;54.60;;;;;;4707631;30;19930;-90
2021/05/12 00:16:18;;;;;;;;;;;21.90;54.60;;;;;;4702397;30;19939;-91
2021/05/12 00:18:46;;;;;;;;;;;21.90;54.70;;;;;;4724664;30;19955;-91
2021/05/12 00:21:27;;;;;;;;;;;21.90;54.60;;;;;;4701548;30;19952;-90
2021/05/12 00:24:00;;;;;;;;;;;21.90;54.60;;;;;;4700790;30;19934;-91
2021/05/12 00:26:30;;;;;;;;;;;21.90;54.60;;;;;;4723558;30;20083;-91
2021/05/12 00:28:56;;;;;;;;;;;21.80;54.50;;;;;;4710557;30;20467;-91
2021/05/12 00:31:23;;;;;;;;;;;21.80;54.50;;;;;;4713247;30;19939;-91
2021/05/12 00:33:50;;;;;;;;;;;21.90;54.50;;;;;;4712329;30;19934;-91
2021/05/12 00:36:16;;;;;;;;;;;21.80;54.50;;;;;;4708050;30;19930;-92
2021/05/12 00:38:43;;;;;;;;;;;21.80;54.50;;;;;;4696854;30;19938;-91
2021/05/12 00:41:10;;;;;;;;;;;21.90;54.60;;;;;;4713994;30;19961;-89
2021/05/12 00:43:36;;;;;;;;;;;21.80;54.50;;;;;;4728023;30;19989;-92
2021/05/12 00:46:03;;;;;;;;;;;21.90;54.60;;;;;;4727184;30;19934;-90
2021/05/12 00:48:29;;;;;;;;;;;21.80;54.50;;;;;;4711077;30;19931;-90
2021/05/12 00:50:56;;;;;;;;;;;21.80;54.50;;;;;;4714214;30;19930;-91
2021/05/12 00:53:23;;;;;;;;;;;21.80;54.50;;;;;;4701213;30;19931;-91
2021/05/12 00:55:49;;;;;;;;;;;21.80;54.50;;;;;;4706769;30;20210;-92
2021/05/12 00:58:17;;;;;;;;;;;21.80;54.50;;;;;;4712752;30;19930;-91
2021/05/12 01:00:44;;;;;;;;;;;21.80;54.50;;;;;;4724470;30;20568;-92
2021/05/12 01:03:11;;;;;;;;;;;21.80;54.50;;;;;;4713528;30;19931;-92
2021/05/12 01:05:37;;;;;;;;;;;21.80;54.50;;;;;;4710107;30;20613;-93
2021/05/12 01:08:05;;;;;;;;;;;21.80;54.50;;;;;;4713327;30;20424;-92
2021/05/12 01:10:32;;;;;;;;;;;21.80;54.50;;;;;;4713036;30;20300;-92
2021/05/12 01:12:59;;;;;;;;;;;21.80;54.50;;;;;;4727488;30;19931;-92
2021/05/12 01:15:27;;;;;;;;;;;21.80;54.50;;;;;;4710333;30;20047;-92
2021/05/12 01:18:06;;;;;;;;;;;21.70;54.50;;;;;;4713755;30;20273;-92
2021/05/12 01:20:33;;;;;;;;;;;21.80;54.50;;;;;;4728786;30;19935;-89
2021/05/12 01:22:59;;;;;;;;;;;21.80;54.50;;;;;;4727641;30;20021;-89
2021/05/12 01:25:26;;;;;;;;;;;21.70;54.50;;;;;;4708595;30;20225;-90
2021/05/12 01:27:53;;;;;;;;;;;21.70;54.50;;;;;;4723728;30;20358;-88
2021/05/12 01:30:20;;;;;;;;;;;21.70;54.50;;;;;;4727823;30;19931;-88
2021/05/12 01:32:47;;;;;;;;;;;21.70;54.50;;;;;;4727336;30;20185;-88
2021/05/12 01:35:14;;;;;;;;;;;21.70;54.50;;;;;;4728089;30;19985;-89
2021/05/12 01:37:41;;;;;;;;;;;21.70;54.40;;;;;;4709265;30;19931;-88
2021/05/12 01:40:09;;;;;;;;;;;21.70;54.50;;;;;;4727375;30;20565;-89
2021/05/12 01:42:35;;;;;;;;;;;21.70;54.40;;;;;;4727127;30;19938;-90
2021/05/12 01:45:03;;;;;;;;;;;21.70;54.40;;;;;;4712260;30;19976;-89
2021/05/12 01:47:30;;;;;;;;;;;21.70;54.40;;;;;;4727890;30;19931;-90
2021/05/12 01:49:58;;;;;;;;;;;21.70;54.40;;;;;;4711285;30;19931;-89
2021/05/12 01:52:24;;;;;;;;;;;21.70;54.40;;;;;;4710366;30;19931;-90
2021/05/12 01:54:51;;;;;;;;;;;21.70;54.40;;;;;;4726402;30;20278;-90
2021/05/12 01:57:18;;;;;;;;;;;21.70;54.40;;;;;;4725973;30;19941;-88
2021/05/12 01:59:44;;;;;;;;;;;21.70;54.40;;;;;;4728188;30;20441;-87
2021/05/12 02:02:14;;;;;;;;;;;21.70;54.40;;;;;;4728419;30;20301;-87
2021/05/12 02:04:41;;;;;;;;;;;21.70;54.40;;;;;;4710092;30;20116;-87
2021/05/12 02:07:07;;;;;;;;;;;21.70;54.40;;;;;;4712423;30;19934;-87
2021/05/12 02:09:37;;;;;;;;;;;21.70;54.40;;;;;;4708333;30;19939;-88
2021/05/12 02:12:04;;;;;;;;;;;21.60;54.30;;;;;;4714901;30;19941;-90
2021/05/12 02:14:31;;;;;;;;;;;21.70;54.40;;;;;;4711284;30;19937;-90
2021/05/12 02:16:58;;;;;;;;;;;21.70;54.40;;;;;;4729977;30;19939;-90
2021/05/12 02:19:28;;;;;;;;;;;21.70;54.40;;;;;;4731238;30;19941;-90
2021/05/12 02:21:55;;;;;;;;;;;21.70;54.40;;;;;;4730022;30;19934;-90
2021/05/12 02:24:22;;;;;;;;;;;21.60;54.40;;;;;;4730089;30;20344;-90
2021/05/12 02:26:48;;;;;;;;;;;21.60;54.40;;;;;;4713476;30;19953;-90
2021/05/12 02:29:16;;;;;;;;;;;21.70;54.40;;;;;;4715135;30;19938;-90
2021/05/12 02:31:42;;;;;;;;;;;21.60;54.40;;;;;;4729864;30;20221;-89
2021/05/12 02:34:09;;;;;;;;;;;21.60;54.40;;;;;;4713216;30;19985;-93
2021/05/12 02:36:36;;;;;;;;;;;21.70;54.50;;;;;;4715378;30;19934;-91
2021/05/12 02:39:03;;;;;;;;;;;21.60;54.40;;;;;;4730906;30;20435;-92
2021/05/12 02:41:30;;;;;;;;;;;21.60;54.40;;;;;;4712801;30;20435;-92
2021/05/12 02:43:56;;;;;;;;;;;21.60;54.40;;;;;;4715015;30;19935;-91
2021/05/12 02:46:23;;;;;;;;;;;21.60;54.50;;;;;;4726265;30;20344;-92
2021/05/12 02:48:50;;;;;;;;;;;21.60;54.50;;;;;;4715613;30;19938;-91
2021/05/12 02:51:16;;;;;;;;;;;21.60;54.40;;;;;;4728777;30;19931;-92
2021/05/12 02:53:43;;;;;;;;;;;21.60;54.50;;;;;;4714800;30;19934;-91
2021/05/12 02:56:10;;;;;;;;;;;21.60;54.50;;;;;;4713347;30;19930;-89
2021/05/12 02:58:38;;;;;;;;;;;21.60;54.50;;;;;;4720238;30;20337;-92
2021/05/12 03:01:05;;;;;;;;;;;21.60;54.50;;;;;;4715055;30;19938;-92
2021/05/12 03:03:31;;;;;;;;;;;21.60;54.50;;;;;;4728293;30;19938;-88
2021/05/12 03:05:58;;;;;;;;;;;21.60;54.50;;;;;;4729537;30;19938;-88
2021/05/12 03:08:25;;;;;;;;;;;21.60;54.50;;;;;;4729965;30;20317;-88
2021/05/12 03:10:52;;;;;;;;;;;21.60;54.50;;;;;;4731514;30;19931;-88
2021/05/12 03:13:18;;;;;;;;;;;21.60;54.50;;;;;;4714217;30;19945;-88
2021/05/12 03:15:45;;;;;;;;;;;21.60;54.50;;;;;;4711649;30;20466;-90
2021/05/12 03:18:12;;;;;;;;;;;21.60;54.50;;;;;;4734781;30;19942;-90
2021/05/12 03:20:39;;;;;;;;;;;21.70;54.70;;;;;;4736464;30;19934;-89
2021/05/12 03:23:06;;;;;;;;;;;21.60;54.50;;;;;;4732737;30;19938;-94
2021/05/12 03:25:33;;;;;;;;;;;21.70;54.40;;;;;;4717571;30;19966;-95
2021/05/12 03:28:00;;;;;;;;;;;21.70;54.30;;;;;;4716430;30;20021;-94
2021/05/12 03:30:28;;;;;;;;;;;21.70;54.30;;;;;;4717697;30;20343;-94
2021/05/12 03:32:57;;;;;;;;;;;21.80;54.30;;;;;;4712748;30;20408;-88
2021/05/12 03:35:24;;;;;;;;;;;21.80;54.30;;;;;;4724373;30;19961;-89
2021/05/12 03:37:51;;;;;;;;;;;21.80;54.20;;;;;;4701055;30;19942;-92
2021/05/12 03:40:18;;;;;;;;;;;21.80;54.10;;;;;;4715774;30;19934;-89
2021/05/12 03:42:45;;;;;;;;;;;21.90;54.00;;;;;;4724725;24;20150;-86
2021/05/12 03:45:12;;;;;;;;;;;21.90;54.00;;;;;;4748500;30;19930;-85
2021/05/12 03:47:45;;;;;;;;;;;21.90;53.80;;;;;;4747359;30;20265;-87
2021/05/12 03:50:11;;;;;;;;;;;22.00;53.70;;;;;;4750857;30;19931;-85
2021/05/12 03:52:38;;;;;;;;;;;22.00;53.70;;;;;;4730620;30;22139;-85
2021/05/12 03:55:10;;;;;;;;;;;22.00;53.60;;;;;;4749765;30;19934;-91
2021/05/12 03:57:38;;;;;;;;;;;22.00;53.50;;;;;;4727686;30;19965;-93
2021/05/12 04:00:13;;;;;;;;;;;22.10;53.80;;;;;;4731332;30;19941;-92
2021/05/12 04:02:41;;;;;;;;;;;22.10;53.60;;;;;;4729868;30;20193;-87
2021/05/12 04:05:11;;;;;;;;;;;22.10;53.50;;;;;;4721186;30;20025;-92
2021/05/12 04:07:40;;;;;;;;;;;22.20;53.50;;;;;;4754087;30;20165;-93
2021/05/12 04:10:08;;;;;;;;;;;22.20;53.50;;;;;;4742034;30;19930;-92
2021/05/12 04:12:38;;;;;;;;;;;22.20;53.30;;;;;;4738665;30;20515;-91
2021/05/12 04:15:06;;;;;;;;;;;22.20;53.30;;;;;;4726204;30;19935;-90
2021/05/12 04:17:32;;;;;;;;;;;22.20;53.20;;;;;;4722731;30;19939;-86
2021/05/12 04:19:59;;;;;;;;;;;22.20;53.20;;;;;;4746888;30;19941;-86
2021/05/12 04:22:27;;;;;;;;;;;22.30;53.30;;;;;;4748190;30;19977;-87
2021/05/12 04:24:54;;;;;;;;;;;22.30;53.20;;;;;;4746392;30;20141;-84
2021/05/12 04:27:20;;;;;;;;;;;22.30;53.20;;;;;;4750897;30;19934;-92
2021/05/12 04:29:47;;;;;;;;;;;22.30;53.20;;;;;;4736253;30;19930;-92
2021/05/12 04:32:14;;;;;;;;;;;22.30;53.10;;;;;;4731693;30;19930;-90
2021/05/12 04:34:40;;;;;;;;;;;22.30;53.00;;;;;;4723716;30;19931;-94
2021/05/12 04:37:07;;;;;;;;;;;22.30;53.00;;;;;;4725033;30;19961;-89
2021/05/12 04:39:34;;;;;;;;;;;22.30;53.00;;;;;;4725260;30;19967;-90
2021/05/12 04:42:01;;;;;;;;;;;22.30;53.00;;;;;;4731755;30;19946;-87
2021/05/12 04:44:27;;;;;;;;;;;22.40;53.00;;;;;;4726845;24;20325;-89
2021/05/12 04:46:56;;;;;;;;;;;22.40;53.00;;;;;;4751725;30;19942;-93
2021/05/12 04:49:24;;;;;;;;;;;22.40;52.90;;;;;;4735970;30;19934;-91
2021/05/12 04:51:51;;;;;;;;;;;22.40;52.90;;;;;;4733843;30;19934;-84
2021/05/12 04:54:23;;;;;;;;;;;22.40;52.90;;;;;;4747503;30;19934;-86
2021/05/12 04:56:50;;;;;;;;;;;22.40;52.70;;;;;;4734742;30;19930;-87
2021/05/12 04:59:18;;;;;;;;;;;22.40;52.90;;;;;;4747560;30;19934;-87
2021/05/12 05:01:45;;;;;;;;;;;22.40;52.80;;;;;;4748150;30;20008;-90
2021/05/12 05:04:13;;;;;;;;;;;22.30;52.90;;;;;;4743655;30;19930;-93
2021/05/12 05:06:39;;;;;;;;;;;22.30;52.90;;;;;;4731607;30;19937;-83
2021/05/12 05:09:07;;;;;;;;;;;22.30;52.90;;;;;;4744517;30;19941;-82
2021/05/12 05:11:33;;;;;;;;;;;22.20;53.00;;;;;;4744685;30;20025;-83
2021/05/12 05:14:00;;;;;;;;;;;22.20;53.00;;;;;;4745266;30;19934;-83
2021/05/12 05:16:30;;;;;;;;;;;22.20;53.00;;;;;;4735384;30;19941;-88
2021/05/12 05:18:56;;;;;;;;;;;22.30;53.00;;;;;;4729263;30;19946;-90
2021/05/12 05:21:25;;;;;;;;;;;22.20;53.00;;;;;;4731006;30;19930;-91
2021/05/12 05:23:53;;;;;;;;;;;22.20;53.10;;;;;;4729797;30;20076;-90
2021/05/12 05:26:23;;;;;;;;;;;22.20;53.50;;;;;;4744693;30;20307;-87
2021/05/12 05:28:52;;;;;;;;;;;22.20;53.40;;;;;;4743964;30;20401;-86
2021/05/12 05:31:21;;;;;;;;;;;22.10;53.40;;;;;;4746329;30;20450;-86
2021/05/12 05:33:55;;;;;;;;;;;22.10;53.30;;;;;;4745903;30;20422;-86
2021/05/12 05:36:22;;;;;;;;;;;22.10;53.30;;;;;;4753204;30;19929;-86
2021/05/12 05:38:49;;;;;;;;;;;22.10;53.30;;;;;;4746813;30;19938;-88
2021/05/12 05:41:16;;;;;;;;;;;22.10;53.30;;;;;;4747915;30;19957;-89
2021/05/12 05:43:43;;;;;;;;;;;22.00;53.30;;;;;;4746026;30;20313;-87
2021/05/12 05:46:09;;;;;;;;;;;22.10;53.30;;;;;;4726049;30;19934;-88
2021/05/12 05:48:36;;;;;;;;;;;22.00;53.30;;;;;;4749855;30;20404;-84
2021/05/12 05:51:03;;;;;;;;;;;22.00;53.30;;;;;;4729396;30;20591;-82
2021/05/12 05:53:30;;;;;;;;;;;22.00;53.40;;;;;;4723808;30;20368;-83
2021/05/12 05:55:56;;;;;;;;;;;22.00;53.30;;;;;;4726850;30;19934;-90
2021/05/12 05:58:25;;;;;;;;;;;22.00;53.30;;;;;;4721251;30;19930;-90
2021/05/12 06:00:51;;;;;;;;;;;22.00;53.30;;;;;;4747894;30;19930;-88
2021/05/12 06:05:51;;;;;;;;;;;22.00;54.00;;;;;;4641477;30;19932;-84
2021/05/12 06:08:17;;;;;;;;;;;22.00;55.00;;;;;;4646403;30;19949;-85
2021/05/12 06:10:44;;;;;;;;;;;22.00;54.20;;;;;;4646355;30;20323;-82
2021/05/12 06:13:11;;;;;;;;;;;22.00;53.40;;;;;;4651276;30;20366;-88
2021/05/12 06:15:40;;;;;;;;;;;22.00;53.50;;;;;;4656546;30;20595;-84
2021/05/12 06:18:07;;;;;;;;;;;22.10;53.20;;;;;;4642487;30;19939;-85
2021/05/12 06:20:34;;;;;;;;;;;22.10;53.40;;;;;;4642533;30;19940;-86
2021/05/12 06:23:01;;;;;;;;;;;22.10;53.20;;;;;;4633245;30;19940;-86
2021/05/12 06:25:36;;;;;;;;;;;22.10;52.60;;;;;;4652281;30;19933;-89
2021/05/12 06:28:03;;;;;;;;;;;22.10;52.60;;;;;;4636727;30;19939;-87
2021/05/12 06:30:30;;;;;;;;;;;22.10;52.50;;;;;;4649379;30;19933;-86
2021/05/12 06:32:57;;;;;;;;;;;22.10;52.10;;;;;;4651762;30;19931;-90
2021/05/12 06:35:29;;;;;;;;;;;22.10;51.50;;;;;;4632154;30;19940;-86
2021/05/12 06:37:56;;;;;;;;;;;22.10;51.70;;;;;;4643361;30;19985;-90
2021/05/12 06:40:23;;;;;;;;;;;22.10;51.60;;;;;;4625377;30;20550;-87
2021/05/12 06:42:50;;;;;;;;;;;22.10;50.90;;;;;;4643202;30;19939;-85
2021/05/12 06:45:16;;;;;;;;;;;22.10;51.50;;;;;;4649143;30;19935;-89
2021/05/12 06:47:43;;;;;;;;;;;22.10;51.60;;;;;;4667126;30;19932;-83
2021/05/12 06:50:10;;;;;;;;;;;22.20;51.50;;;;;;4658918;30;19932;-86
2021/05/12 06:52:37;;;;;;;;;;;22.10;50.80;;;;;;4643135;30;20487;-91
2021/05/12 06:55:07;;;;;;;;;;;22.10;51.70;;;;;;4652008;30;19940;-96
2021/05/12 06:57:33;;;;;;;;;;;22.10;51.70;;;;;;4647327;30;19941;-95
2021/05/12 07:00:06;;;;;;;;;;;22.20;51.60;;;;;;4655357;30;19932;-86
2021/05/12 07:02:42;;;;;;;;;;;22.20;52.10;;;;;;4650830;30;19932;-89
2021/05/12 07:05:09;;;;;;;;;;;22.20;51.40;;;;;;4653693;30;19969;-91
2021/05/12 07:07:39;;;;;;;;;;;22.20;50.50;;;;;;4634529;30;19947;-90
2021/05/12 07:10:06;;;;;;;;;;;22.20;50.60;;;;;;4641235;30;20019;-86
2021/05/12 07:12:32;;;;;;;;;;;22.20;50.90;;;;;;4652368;30;19936;-86
2021/05/12 07:14:59;;;;;;;;;;;22.20;50.80;;;;;;4635052;30;20394;-91
2021/05/12 07:17:26;;;;;;;;;;;22.20;51.10;;;;;;4644985;30;20310;-85
2021/05/12 07:19:53;;;;;;;;;;;22.20;50.90;;;;;;4622300;30;19932;-87
2021/05/12 07:22:19;;;;;;;;;;;22.20;51.20;;;;;;4635225;30;19936;-86
2021/05/12 07:24:54;;;;;;;;;;;22.20;51.60;;;;;;4696916;25;19937;-83
2021/05/12 07:27:22;;;;;;;;;;;22.20;51.60;;;;;;4743098;30;20670;-82
2021/05/12 07:30:15;;;;;;;;;;;22.20;52.20;;;;;;4714680;30;20478;-82
2021/05/12 07:32:57;;;;;;;;;;;22.10;52.20;;;;;;4722989;30;19941;-82
2021/05/12 07:35:44;;;;;;;;;;;22.10;51.70;;;;;;4732414;30;19983;-82
2021/05/12 07:38:26;;;;;;;;;;;22.00;51.40;;;;;;4681829;30;20032;-82
2021/05/12 07:41:10;;;;;;;;;;;22.00;51.30;;;;;;4741915;30;20469;-82
2021/05/12 07:43:53;;;;;;;;;;;22.00;51.20;;;;;;4719017;30;20496;-82
2021/05/12 07:46:43;;;;;;;;;;;22.00;51.20;;;;;;4691436;30;20116;-81
2021/05/12 07:49:10;;;;;;;;;;;22.00;51.00;;;;;;4746365;30;20613;-81
2021/05/12 07:51:37;;;;;;;;;;;21.90;50.60;;;;;;4745095;30;20388;-85
2021/05/12 07:54:03;;;;;;;;;;;21.90;50.60;;;;;;4743987;30;19968;-88
2021/05/12 07:56:30;;;;;;;;;;;22.00;51.40;;;;;;4740622;30;19942;-88
2021/05/12 08:04:11;;;;;;;;;;;22.10;51.80;;;;;;4756802;30;20245;-89
2021/05/12 08:06:38;;;;;;;;;;;22.20;51.60;;;;;;4737405;30;19942;-89
2021/05/12 08:09:09;;;;;;;;;;;22.30;51.50;;;;;;4728697;30;19940;-89
2021/05/12 08:11:35;;;;;;;;;;;22.30;50.70;;;;;;4760076;30;20769;-89
2021/05/12 08:14:07;;;;;;;;;;;22.30;50.40;;;;;;4756033;30;19941;-86
2021/05/12 08:16:34;;;;;;;;;;;22.30;50.60;;;;;;4764870;30;20415;-89
2021/05/12 08:19:01;;;;;;;;;;;22.30;50.50;;;;;;4744612;30;19934;-92
2021/05/12 08:21:27;;;;;;;;;;;22.40;50.40;;;;;;4743088;30;19934;-85
2021/05/12 08:23:55;;;;;;;;;;;22.40;50.00;;;;;;4745282;30;20067;-83
2021/05/12 08:26:22;;;;;;;;;;;22.50;50.30;;;;;;4760936;30;19934;-87
2021/05/12 08:28:49;;;;;;;;;;;22.50;50.10;;;;;;4749781;30;19930;-92
2021/05/12 08:31:18;;;;;;;;;;;22.60;50.30;;;;;;4764617;30;19933;-87
2021/05/12 08:33:44;;;;;;;;;;;22.60;50.20;;;;;;4746779;30;19937;-92
2021/05/12 08:36:12;;;;;;;;;;;22.60;49.90;;;;;;4751944;30;19934;-87
2021/05/12 08:38:45;;;;;;;;;;;22.70;49.40;;;;;;4761734;30;20159;-88
2021/05/12 08:41:14;;;;;;;;;;;22.70;49.80;;;;;;4765596;30;20336;-88
2021/05/12 08:43:41;;;;;;;;;;;22.80;49.50;;;;;;4760646;30;20236;-86
2021/05/12 08:46:11;;;;;;;;;;;22.80;49.20;;;;;;4748859;30;20231;-86
2021/05/12 08:48:39;;;;;;;;;;;22.80;49.40;;;;;;4733540;30;20439;-93
2021/05/12 08:51:06;;;;;;;;;;;22.80;49.20;;;;;;4749797;30;19937;-87
2021/05/12 08:53:33;;;;;;;;;;;22.90;49.30;;;;;;4742040;30;19934;-85
2021/05/12 08:56:00;;;;;;;;;;;22.90;49.30;;;;;;4746280;30;19938;-88
2021/05/12 08:58:26;;;;;;;;;;;22.90;49.30;;;;;;4744403;30;19934;-92
2021/05/12 09:00:54;;;;;;;;;;;23.00;48.20;;;;;;4728511;30;19934;-85
2021/05/12 09:03:21;;;;;;;;;;;23.00;48.70;;;;;;4735888;30;20427;-84
2021/05/12 09:05:48;;;;;;;;;;;23.00;48.70;;;;;;4724966;30;19934;-88
2021/05/12 09:08:14;;;;;;;;;;;23.00;48.40;;;;;;4739907;30;19934;-82
2021/05/12 09:10:42;;;;;;;;;;;23.00;48.30;;;;;;4740406;30;19934;-84
2021/05/12 09:13:08;;;;;;;;;;;23.10;48.50;;;;;;4721860;30;20022;-84
2021/05/12 09:15:40;;;;;;;;;;;23.10;48.50;;;;;;4733121;30;19934;-86
2021/05/12 09:18:07;;;;;;;;;;;23.10;48.70;;;;;;4741585;30;20407;-81
2021/05/12 09:20:37;;;;;;;;;;;23.10;48.60;;;;;;4724034;30;20034;-84
2021/05/12 09:23:04;;;;;;;;;;;23.10;48.60;;;;;;4739962;30;20080;-84
2021/05/12 09:25:32;;;;;;;;;;;23.20;48.80;;;;;;4740432;30;19941;-90
2021/05/12 09:28:08;;;;;;;;;;;23.20;49.00;;;;;;4730850;30;19934;-85
2021/05/12 09:30:38;;;;;;;;;;;23.20;48.80;;;;;;4736190;30;19961;-90
2021/05/12 09:33:06;;;;;;;;;;;23.20;48.70;;;;;;4726553;30;20578;-87
2021/05/12 09:35:45;;;;;;;;;;;23.20;48.40;;;;;;4740080;30;19934;-89
2021/05/12 09:38:19;;;;;;;;;;;23.30;48.60;;;;;;4740897;30;20061;-86
2021/05/12 09:40:58;;;;;;;;;;;23.30;48.30;;;;;;4743717;30;20350;-88
2021/05/12 09:43:29;;;;;;;;;;;23.30;48.30;;;;;;4733398;30;19945;-87
2021/05/12 09:46:14;;;;;;;;;;;23.40;47.40;;;;;;4736150;30;19965;-83
2021/05/12 09:48:45;;;;;;;;;;;23.40;47.60;;;;;;4741157;30;20722;-86
2021/05/12 09:51:16;;;;;;;;;;;23.40;48.30;;;;;;4740746;30;20438;-95
2021/05/12 09:54:01;;;;;;;;;;;23.40;48.30;;;;;;4739355;30;20842;-87
2021/05/12 09:56:44;;;;;;;;;;;23.40;46.20;;;;;;4717448;30;20803;-93
2021/05/12 09:59:14;;;;;;;;;;;23.50;47.10;;;;;;4723610;30;19969;-86
2021/05/12 10:01:46;;;;;;;;;;;23.50;47.80;;;;;;4740380;30;20018;-90
2021/05/12 10:04:19;;;;;;;;;;;23.60;47.70;;;;;;4705535;30;20258;-87
2021/05/12 10:06:46;;;;;;;;;;;23.50;47.70;;;;;;4716225;30;20907;-86
2021/05/12 10:09:20;;;;;;;;;;;23.60;48.00;;;;;;4718547;30;19935;-86
2021/05/12 10:12:19;;;;;;;;;;;23.60;47.80;;;;;;4721654;30;20121;-86
2021/05/12 10:14:50;;;;;;;;;;;23.60;47.90;;;;;;4695609;30;20063;-87
2021/05/12 10:17:18;;;;;;;;;;;23.70;48.00;;;;;;4728078;30;19930;-84
2021/05/12 10:19:46;;;;;;;;;;;23.70;47.60;;;;;;4728503;30;19930;-85
2021/05/12 10:22:13;;;;;;;;;;;23.70;45.90;;;;;;4725896;30;19937;-86
2021/05/12 10:24:44;;;;;;;;;;;23.70;46.00;;;;;;4727807;30;21621;-88
2021/05/12 10:27:15;;;;;;;;;;;23.60;47.10;;;;;;4727617;30;20563;-86
2021/05/12 10:29:45;;;;;;;;;;;23.50;47.30;;;;;;4729834;30;20001;-86
2021/05/12 10:32:16;;;;;;;;;;;23.50;46.50;;;;;;4724629;30;19978;-85
2021/05/12 10:34:42;;;;;;;;;;;23.50;45.50;;;;;;4731218;30;20808;-86
2021/05/12 10:37:29;;;;;;;;;;;23.50;46.50;;;;;;4730288;30;20453;-89
2021/05/12 10:40:01;;;;;;;;;;;23.40;45.60;;;;;;4716664;30;20206;-89
2021/05/12 10:42:45;;;;;;;;;;;23.30;45.70;;;;;;4729919;30;19938;-84
2021/05/12 10:45:16;;;;;;;;;;;23.30;45.70;;;;;;4728812;30;19931;-82
2021/05/12 10:47:43;;;;;;;;;;;23.30;45.20;;;;;;4728959;30;20366;-84
2021/05/12 10:50:10;;;;;;;;;;;23.30;46.00;;;;;;4728332;30;19962;-85
2021/05/12 10:52:37;;;;;;;;;;;23.40;46.70;;;;;;4729418;30;19942;-89
2021/05/12 10:55:04;;;;;;;;;;;23.40;47.30;;;;;;4728437;30;20502;-88
2021/05/12 10:57:44;;;;;;;;;;;23.40;47.60;;;;;;4718406;30;19939;-90
2021/05/12 11:00:11;;;;;;;;;;;23.50;47.80;;;;;;4713636;30;21327;-91
2021/05/12 11:02:50;;;;;;;;;;;23.50;47.80;;;;;;4732737;30;20564;-88
2021/05/12 11:05:17;;;;;;;;;;;23.60;47.90;;;;;;4737730;30;20670;-85
2021/05/12 11:08:02;;;;;;;;;;;23.60;47.70;;;;;;4745697;30;19930;-86
2021/05/12 11:10:48;;;;;;;;;;;23.70;47.90;;;;;;4744917;30;19937;-87
2021/05/12 11:13:18;;;;;;;;;;;23.70;47.20;;;;;;4731294;30;20251;-83
2021/05/12 11:15:51;;;;;;;;;;;23.70;47.50;;;;;;4744558;30;19995;-88
2021/05/12 11:18:33;;;;;;;;;;;23.80;47.20;;;;;;4749967;30;19941;-90
2021/05/12 11:21:34;;;;;;;;;;;23.80;45.20;;;;;;4731362;30;19945;-89
2021/05/12 11:24:01;;;;;;;;;;;23.90;46.20;;;;;;4744272;30;19925;-91
2021/05/12 11:31:56;;;;;;;;;;;23.90;45.90;;;;;;4753942;30;20169;-86
2021/05/12 11:34:24;;;;;;;;;;;24.00;46.30;;;;;;4762184;30;19924;-86
2021/05/12 11:37:02;;;;;;;;;;;23.90;44.80;;;;;;4749423;30;19951;-88
2021/05/12 11:39:38;;;;;;;;;;;23.90;45.70;;;;;;4762375;30;20019;-89
2021/05/12 11:42:17;;;;;;;;;;;23.90;44.20;;;;;;4766791;30;19949;-91
2021/05/12 11:44:44;;;;;;;;;;;24.00;45.60;;;;;;4746726;29;20281;-90
2021/05/12 11:47:11;;;;;;;;;;;24.00;46.00;;;;;;4751057;30;19938;-90
2021/05/12 11:49:39;;;;;;;;;;;24.10;45.30;;;;;;4762001;30;20156;-89
2021/05/12 11:52:05;;;;;;;;;;;24.10;45.80;;;;;;4753476;30;19934;-91
2021/05/12 11:54:32;;;;;;;;;;;24.10;46.10;;;;;;4739148;30;19941;-91
2021/05/12 11:56:59;;;;;;;;;;;24.10;46.30;;;;;;4734844;30;20278;-92
2021/05/12 11:59:27;;;;;;;;;;;24.10;45.70;;;;;;4723515;30;19945;-89
2021/05/12 12:02:05;;;;;;;;;;;24.20;46.30;;;;;;4725954;30;20313;-90
2021/05/12 12:04:59;;;;;;;;;;;24.30;46.50;;;;;;4739498;30;19934;-89
2021/05/12 12:07:19;;;;;;;;;;;24.30;46.20;;;;;;4741450;30;20275;-90
2021/05/12 12:09:45;;;;;;;;;;;24.30;45.40;;;;;;4730920;30;19945;-91
2021/05/12 12:12:12;;;;;;;;;;;24.30;46.10;;;;;;4718806;30;19934;-90
2021/05/12 12:14:40;;;;;;;;;;;24.30;46.60;;;;;;4730811;30;19935;-90
2021/05/12 12:17:11;;;;;;;;;;;24.40;47.10;;;;;;4745523;30;19958;-87
2021/05/12 12:19:38;;;;;;;;;;;24.40;47.20;;;;;;4731557;30;19940;-90
2021/05/12 12:22:06;;;;;;;;;;;24.40;47.40;;;;;;4739159;30;20289;-88
2021/05/12 12:24:34;;;;;;;;;;;24.50;47.30;;;;;;4742026;30;20537;-88
2021/05/12 12:27:02;;;;;;;;;;;24.50;47.60;;;;;;4725397;30;19936;-86
2021/05/12 12:29:30;;;;;;;;;;;24.50;47.30;;;;;;4730744;30;20227;-86
2021/05/12 12:32:00;;;;;;;;;;;24.60;44.50;;;;;;4738673;30;19938;-91
2021/05/12 12:34:30;;;;;;;;;;;24.70;41.20;;;;;;4726667;30;20025;-87
2021/05/12 12:37:09;;;;;;;;;;;24.60;41.00;;;;;;4730164;30;19950;-88
2021/05/12 12:39:36;;;;;;;;;;;24.60;41.20;;;;;;4748910;30;20430;-81
2021/05/12 12:42:04;;;;;;;;;;;24.60;41.80;;;;;;4738036;30;19938;-81
2021/05/12 12:44:36;;;;;;;;;;;24.60;42.60;;;;;;4744408;30;19941;-85
2021/05/12 12:47:03;;;;;;;;;;;24.70;43.50;;;;;;4744966;30;19939;-85
2021/05/12 12:49:34;;;;;;;;;;;24.80;44.20;;;;;;4737590;30;19942;-79
2021/05/12 12:52:08;;;;;;;;;;;24.70;44.90;;;;;;4727298;30;19941;-79
2021/05/12 12:54:41;;;;;;;;;;;24.80;45.60;;;;;;4746474;30;19963;-82
2021/05/12 12:57:08;;;;;;;;;;;24.80;45.70;;;;;;4742517;30;19938;-81
2021/05/12 12:59:55;;;;;;;;;;;24.90;45.50;;;;;;4742436;30;20366;-81
2021/05/12 13:02:39;;;;;;;;;;;24.90;45.30;;;;;;4735496;30;20319;-85
2021/05/12 13:05:23;;;;;;;;;;;24.90;45.90;;;;;;4749326;30;19945;-82
2021/05/12 13:07:51;;;;;;;;;;;24.90;46.00;;;;;;4716486;30;20188;-82
2021/05/12 13:10:23;;;;;;;;;;;24.90;45.50;;;;;;4744295;30;19981;-84
2021/05/12 13:12:50;;;;;;;;;;;24.90;45.80;;;;;;4744408;30;19942;-84
2021/05/12 13:15:34;;;;;;;;;;;24.90;44.20;;;;;;4744863;30;20414;-84
2021/05/12 13:18:02;;;;;;;;;;;24.90;44.20;;;;;;4747013;30;19945;-83
2021/05/12 13:20:30;;;;;;;;;;;24.90;43.10;;;;;;4740449;30;19942;-86
2021/05/12 13:23:13;;;;;;;;;;;24.90;43.50;;;;;;4728495;30;19938;-87
2021/05/12 13:25:53;;;;;;;;;;;24.80;40.90;;;;;;4730190;30;27407;-86
2021/05/12 13:28:21;;;;;;;;;;;24.70;43.10;;;;;;4713225;30;21401;-86
2021/05/12 13:30:49;;;;;;;;;;;24.50;42.40;;;;;;4738604;30;19934;-86
2021/05/12 13:33:19;;;;;;;;;;;24.30;40.30;;;;;;4726383;30;19934;-83
2021/05/12 13:35:46;;;;;;;;;;;24.20;40.60;;;;;;4743220;30;19934;-85
2021/05/12 13:38:13;;;;;;;;;;;24.20;40.60;;;;;;4741911;30;20799;-85
2021/05/12 13:40:40;;;;;;;;;;;24.20;41.80;;;;;;4726922;30;20490;-84
2021/05/12 13:43:07;;;;;;;;;;;24.30;40.90;;;;;;4728713;30;19930;-85
2021/05/12 13:45:34;;;;;;;;;;;24.30;41.50;;;;;;4742565;30;19940;-85
2021/05/12 13:48:00;;;;;;;;;;;24.40;43.50;;;;;;4744830;30;20415;-83
2021/05/12 13:50:30;;;;;;;;;;;24.40;43.50;;;;;;4744226;30;19933;-84
2021/05/12 13:56:16;;;;;;;;;;;24.50;43.20;;;;;;4675629;30;20449;-85
2021/05/12 13:59:03;;;;;;;;;;;24.50;44.30;;;;;;4740965;30;19991;-84
2021/05/12 14:04:15;;;;;;;;;;;24.60;47.20;;;;;;4739451;30;21871;-86
2021/05/12 14:06:42;;;;;;;;;;;24.60;48.10;;;;;;4740216;30;19945;-85
2021/05/12 14:09:12;;;;;;;;;;;24.60;48.30;;;;;;4733577;30;19934;-85
2021/05/12 14:11:47;;;;;;;;;;;24.60;48.40;;;;;;4749919;30;19934;-85
2021/05/12 14:15:04;;;;;;;;;;;24.60;48.00;;;;;;4744704;30;22316;-83
2021/05/12 14:17:03;;;;;;;;;;;24.60;47.90;;;;;;4708151;30;19952;-87
2021/05/12 14:19:31;;;;;;;;;;;24.70;48.10;;;;;;4743136;30;19933;-87
2021/05/12 14:21:57;;;;;;;;;;;24.70;47.90;;;;;;4731218;30;19938;-83
2021/05/12 14:24:28;;;;;;;;;;;24.70;48.40;;;;;;4743854;30;20134;-84
2021/05/12 14:27:01;;;;;;;;;;;24.70;48.30;;;;;;4746821;30;19938;-84
2021/05/12 14:29:34;;;;;;;;;;;24.70;48.30;;;;;;4733141;30;19941;-86
2021/05/12 14:32:02;;;;;;;;;;;24.70;48.50;;;;;;4745377;30;19998;-82
2021/05/12 14:34:31;;;;;;;;;;;24.80;48.40;;;;;;4743254;30;19941;-83
2021/05/12 14:36:58;;;;;;;;;;;24.70;48.30;;;;;;4741538;30;19934;-82
2021/05/12 14:39:27;;;;;;;;;;;24.70;48.00;;;;;;4720206;30;20388;-84
2021/05/12 14:41:53;;;;;;;;;;;24.80;47.00;;;;;;4727130;30;19949;-83
2021/05/12 14:44:21;;;;;;;;;;;24.80;47.60;;;;;;4745234;30;19934;-82
2021/05/12 14:46:48;;;;;;;;;;;24.80;47.90;;;;;;4746134;30;20421;-84
2021/05/12 14:49:15;;;;;;;;;;;24.80;47.00;;;;;;4744833;30;20581;-83